Rio De La Plata — D5CT8 — position and weather

sailwx.info

Track history (hours):
 
Tides and Currents Weather Stations Pressure Air Temp Water Temp Dewpoint Dewpoint Depression Visibility Wind Speed Wind Dir Waves Ship Positions

Rio De La Plata

Last reported at 2018-Feb-25 04:00 UTC. Time now 2018-Feb-25 04:15 UTC.
Position N 49°07' W 005°18'.

Length 286 m; draft 12.1 m.

Type: Ship (hazmat cat C). MMSI: 636092451.

Date/timePositionNaut miles runAvg speedWind from/ knotsBaromVisibWave heightAir tempDewpointWater temp
2018-Feb-25 04:00N 49°07' W 005°18'8318.7
2018-Feb-24 23:32N 49°49' W 003°26'218.7
2018-Feb-24 23:24N 49°50' W 003°23'818.8
2018-Feb-24 23:00N 49°54' W 003°13'1019.3
2018-Feb-24 22:30N 49°57' W 002°59'1019.8
2018-Feb-24 22:00N 49°59' W 002°44'1020.4
2018-Feb-24 21:30N 50°03' W 002°28'1321.2
2018-Feb-24 20:53N 50°06' W 002°09'821.7
2018-Feb-24 20:30N 50°08' W 001°57'1121.7
2018-Feb-24 20:00N 50°12' W 001°41'1221.7
2018-Feb-24 19:28N 50°15' W 001°23'4020.7
2018-Feb-24 17:31N 50°26' W 000°22'119.8
2018-Feb-24 17:29N 50°26' W 000°21'1119.8
2018-Feb-24 16:57N 50°28' W 000°05'919.5
2018-Feb-24 16:31N 50°30' E 000°08'1019.2
2018-Feb-24 16:01N 50°33' E 000°23'919.0
2018-Feb-24 15:31N 50°36' E 000°37'1019.1
2018-Feb-24 15:01N 50°41' E 000°50'1019.6
2018-Feb-24 14:30N 50°47' E 001°02'1220.4
2018-Feb-24 13:55N 50°55' E 001°17'921.4
2018-Feb-24 13:30N 51°01' E 001°26'1122.3
2018-Feb-24 13:01N 51°08' E 001°40'1020.9
2018-Feb-24 12:31N 51°17' E 001°50'1020.5
2018-Feb-24 12:01N 51°25' E 001°58'1020.5
2018-Feb-24 11:31N 51°33' E 002°09'1019.1
2018-Feb-24 11:00N 51°40' E 002°19'4916.9
2018-Feb-24 08:07N 52°03' E 003°29'315.3
2018-Feb-24 07:57N 52°03' E 003°33'715.3
2018-Feb-24 07:31N 52°03' E 003°44'611.9
2018-Feb-24 07:00N 52°04' E 003°54'5 9.5
2018-Feb-24 06:31N 52°01' E 003°60'4 8.0
2018-Feb-24 06:01N 51°58' E 004°05'1 1.8
2018-Feb-24 05:30N 51°58' E 004°03'0 0.0
2018-Feb-24 04:58N 51°58' E 004°03'0 0.0
2018-Feb-24 04:28N 51°58' E 004°03'0 0.0
2018-Feb-24 03:58N 51°58' E 004°03'0 0.0
2018-Feb-24 03:28N 51°58' E 004°03'0 0.0
2018-Feb-24 02:58N 51°58' E 004°03'0 0.0
2018-Feb-24 02:28N 51°58' E 004°03'0 0.0
2018-Feb-24 01:58N 51°58' E 004°03'0 0.0
2018-Feb-24 01:28N 51°58' E 004°03'0 0.0
2018-Feb-24 00:58N 51°58' E 004°03'0 0.0
2018-Feb-24 00:28N 51°58' E 004°03'0 0.0
2018-Feb-23 23:58N 51°58' E 004°03'0 0.0
2018-Feb-23 23:28N 51°58' E 004°03'0 0.0
2018-Feb-23 22:58N 51°58' E 004°03'0 0.0
2018-Feb-23 22:28N 51°58' E 004°03'0 0.0
2018-Feb-23 21:58N 51°58' E 004°03'0 0.0
2018-Feb-23 21:28N 51°58' E 004°03'0 0.0
2018-Feb-23 20:58N 51°58' E 004°03'0 0.0
2018-Feb-23 20:28N 51°58' E 004°03'0 0.0
2018-Feb-23 19:58N 51°58' E 004°03'0 0.0
2018-Feb-23 19:28N 51°58' E 004°03'0 0.0
2018-Feb-23 18:58N 51°58' E 004°03'0 0.0
2018-Feb-23 18:28N 51°58' E 004°03'0 0.0
2018-Feb-23 17:58N 51°58' E 004°03'0 0.0
2018-Feb-23 17:28N 51°58' E 004°03'0 0.0
2018-Feb-23 16:58N 51°58' E 004°03'0 0.0
2018-Feb-23 16:28N 51°58' E 004°03'0 0.0
2018-Feb-23 15:58N 51°58' E 004°03'0 0.0
2018-Feb-23 15:28N 51°58' E 004°03'0 0.0
2018-Feb-23 14:58N 51°58' E 004°03'0 0.0
2018-Feb-23 14:28N 51°58' E 004°03'0 0.0
2018-Feb-23 14:00N 51°58' E 004°03'1 2.3
2018-Feb-23 13:31N 51°58' E 004°05'3 6.2
2018-Feb-23 13:00N 51°60' E 004°01'713.5
2018-Feb-23 12:30N 51°59' E 003°50'3 5.5
2018-Feb-23 12:00N 52°00' E 003°46'611.9
2018-Feb-23 11:30N 52°06' E 003°46'612.1
2018-Feb-23 11:00N 52°12' E 003°47'612.9
2018-Feb-23 10:30N 52°19' E 003°48'1018.1
2018-Feb-23 09:57N 52°29' E 003°52'817.5
2018-Feb-23 09:30N 52°37' E 003°54'1516.5
2018-Feb-23 08:36N 52°51' E 003°58'215.7
2018-Feb-23 08:30N 52°53' E 003°59'815.5
2018-Feb-23 08:00N 53°00' E 004°03'816.3
2018-Feb-23 07:29N 53°06' E 004°13'816.7
2018-Feb-23 06:59N 53°12' E 004°23'817.4
2018-Feb-23 06:31N 53°19' E 004°30'917.7
2018-Feb-23 06:00N 53°27' E 004°37'917.1
2018-Feb-23 05:29N 53°31' E 004°49'918.6
2018-Feb-23 04:59N 53°35' E 005°04'918.4
2018-Feb-23 04:29N 53°38' E 005°18'917.9
2018-Feb-23 04:00N 53°41' E 005°32'917.6
2018-Feb-23 03:28N 53°44' E 005°47'6716.1
2018-Feb-22 23:20N 53°59' E 007°37'1013.1
2018-Feb-22 22:36N 53°53' E 007°49'114.7
2018-Feb-22 22:30N 53°52' E 007°51'713.4
2018-Feb-22 22:00N 53°51' E 008°02'815.8
2018-Feb-22 21:30N 53°45' E 008°12'816.9
2018-Feb-22 21:00N 53°40' E 008°23'612.8
2018-Feb-22 20:31N 53°36' E 008°31'0 0.5
2018-Feb-22 20:00N 53°36' E 008°31'0 0.0
2018-Feb-22 19:30N 53°36' E 008°31'0 0.0
2018-Feb-22 19:00N 53°36' E 008°31'0 0.0
2018-Feb-22 18:30N 53°36' E 008°31'0 0.0
2018-Feb-22 18:00N 53°36' E 008°31'0 0.0
2018-Feb-22 17:30N 53°36' E 008°31'0 0.0
2018-Feb-22 17:00N 53°36' E 008°31'0 0.0
2018-Feb-22 16:30N 53°36' E 008°31'0 0.0
2018-Feb-22 16:00N 53°36' E 008°31'0 0.0
2018-Feb-22 15:30N 53°36' E 008°31'0 0.1
2018-Feb-22 15:00N 53°36' E 008°31'0 0.1
2018-Feb-22 14:30N 53°36' E 008°31'0 0.0
2018-Feb-22 14:00N 53°36' E 008°31'0 0.0
2018-Feb-22 13:30N 53°36' E 008°31'0 0.1
2018-Feb-22 13:00N 53°36' E 008°31'0 0.0
2018-Feb-22 12:30N 53°36' E 008°31'0 0.0
2018-Feb-22 12:00N 53°36' E 008°31'0 0.1
2018-Feb-22 11:30N 53°36' E 008°31'0 0.1
2018-Feb-22 11:00N 53°36' E 008°31'0 0.0
2018-Feb-22 10:30N 53°36' E 008°31'0 0.0
2018-Feb-22 10:00N 53°36' E 008°31'0 0.0
2018-Feb-22 09:30N 53°36' E 008°31'0 0.0
2018-Feb-22 09:00N 53°36' E 008°31'0 0.0
2018-Feb-22 08:30N 53°36' E 008°31'0 0.0
2018-Feb-22 08:00N 53°36' E 008°31'0 0.0
2018-Feb-22 07:30N 53°36' E 008°31'0 0.0
2018-Feb-22 07:00N 53°36' E 008°31'0 0.0
2018-Feb-22 06:30N 53°36' E 008°31'0 0.0
2018-Feb-22 06:00N 53°36' E 008°31'0 0.0
2018-Feb-22 05:30N 53°36' E 008°31'0 0.0
2018-Feb-22 05:00N 53°36' E 008°31'0 0.0
2018-Feb-22 04:30N 53°36' E 008°31'0 0.0
2018-Feb-22 04:00N 53°36' E 008°31'0 0.0
2018-Feb-22 03:30N 53°36' E 008°31'0 0.0
2018-Feb-22 03:00N 53°36' E 008°31'0 0.0
2018-Feb-22 02:30N 53°36' E 008°31'0 0.0
2018-Feb-22 02:00N 53°36' E 008°31'0 0.0
2018-Feb-22 01:30N 53°36' E 008°31'0 0.0
2018-Feb-22 01:00N 53°36' E 008°31'0 0.0
2018-Feb-22 00:30N 53°36' E 008°31'0 0.0
2018-Feb-22 00:00N 53°36' E 008°31'0 0.0
2018-Feb-21 23:30N 53°36' E 008°31'0 0.0
2018-Feb-21 23:00N 53°36' E 008°31'0 0.0
2018-Feb-21 22:30N 53°36' E 008°31'0 0.0
2018-Feb-21 22:00N 53°36' E 008°31'2 4.1
2018-Feb-21 21:30N 53°37' E 008°29'713.6
2018-Feb-21 21:00N 53°42' E 008°20'714.6
2018-Feb-21 20:30N 53°46' E 008°11'714.6
2018-Feb-21 20:00N 53°51' E 008°01'812.2
2018-Feb-21 19:19N 53°52' E 007°48'5 3.8
2018-Feb-21 17:53N 53°53' E 007°38'0 1.1
2018-Feb-21 17:30N 53°54' E 007°39'3 5.3
2018-Feb-21 16:59N 53°54' E 007°34'9814.2
2018-Feb-21 10:07N 53°28' E 004°56'214.6
2018-Feb-21 10:00N 53°28' E 004°53'2214.9
2018-Feb-21 08:32N 53°10' E 004°31'115.9
2018-Feb-21 08:29N 53°09' E 004°31'715.6
2018-Feb-21 08:00N 53°03' E 004°24'917.1
2018-Feb-21 07:30N 52°56' E 004°17'917.9
2018-Feb-21 07:00N 52°48' E 004°10'917.8
2018-Feb-21 06:30N 52°41' E 003°60'917.7
2018-Feb-21 06:00N 52°35' E 003°50'1017.8
2018-Feb-21 05:27N 52°27' E 003°40'817.5
2018-Feb-21 05:00N 52°22' E 003°30'5816.0
2018-Feb-21 01:22N 51°53' E 002°08'514.9
2018-Feb-21 01:00N 51°50' E 002°00'714.4
2018-Feb-21 00:31N 51°48' E 001°49'714.7
2018-Feb-21 00:00N 51°50' E 001°38'3 6.5
2018-Feb-20 23:31N 51°48' E 001°33'713.6
2018-Feb-20 23:00N 51°43' E 001°28'713.5
2018-Feb-20 22:30N 51°38' E 001°20'714.3
2018-Feb-20 22:00N 51°34' E 001°11'815.9
2018-Feb-20 21:30N 51°29' E 000°60'714.8
2018-Feb-20 21:00N 51°29' E 000°48'714.6
2018-Feb-20 20:30N 51°30' E 000°36'4 7.7
2018-Feb-20 20:00N 51°30' E 000°30'0 0.0
2018-Feb-20 19:30N 51°30' E 000°30'0 0.0
2018-Feb-20 19:00N 51°30' E 000°30'0 0.0
2018-Feb-20 18:30N 51°30' E 000°30'0 0.0
2018-Feb-20 18:00N 51°30' E 000°30'0 0.0
2018-Feb-20 17:30N 51°30' E 000°30'0 0.0
2018-Feb-20 17:00N 51°30' E 000°30'0 0.0
2018-Feb-20 16:30N 51°30' E 000°30'0 0.0
2018-Feb-20 16:01N 51°30' E 000°30'0 0.0
2018-Feb-20 15:30N 51°30' E 000°30'0 0.0
2018-Feb-20 15:00N 51°30' E 000°30'0 0.0
2018-Feb-20 14:30N 51°30' E 000°30'0 0.0
2018-Feb-20 14:00N 51°30' E 000°30'0 0.0
2018-Feb-20 13:30N 51°30' E 000°30'0 0.0
2018-Feb-20 13:00N 51°30' E 000°30'0 0.0
2018-Feb-20 12:30N 51°30' E 000°30'0 0.0
2018-Feb-20 12:00N 51°30' E 000°30'0 0.0
2018-Feb-20 11:30N 51°30' E 000°30'0 0.0
2018-Feb-20 11:00N 51°30' E 000°30'0 0.0
2018-Feb-20 10:30N 51°30' E 000°30'0 0.0
2018-Feb-20 10:00N 51°30' E 000°30'0 0.0
2018-Feb-20 09:30N 51°30' E 000°30'0 0.0
2018-Feb-20 09:00N 51°30' E 000°30'0 0.0
2018-Feb-20 08:30N 51°30' E 000°30'0 0.0
2018-Feb-20 08:00N 51°30' E 000°30'0 0.0
2018-Feb-20 07:30N 51°30' E 000°30'0 0.4
2018-Feb-20 07:00N 51°30' E 000°31'2 4.3
2018-Feb-20 06:31N 51°30' E 000°34'4 8.5
2018-Feb-20 06:00N 51°30' E 000°41'510.9
2018-Feb-20 05:30N 51°29' E 000°49'612.0
2018-Feb-20 05:00N 51°29' E 000°59'612.2
2018-Feb-20 04:31N 51°29' E 001°09'611.7
2018-Feb-20 04:01N 51°29' E 001°18'713.9
2018-Feb-20 03:30N 51°29' E 001°30'4 7.5
2018-Feb-20 03:00N 51°29' E 001°36'3 5.6
2018-Feb-20 02:30N 51°30' E 001°40'611.0
2018-Feb-20 02:00N 51°30' E 001°49'612.5
2018-Feb-20 01:30N 51°27' E 001°57'510.8
2018-Feb-20 01:01N 51°22' E 002°00'714.4
2018-Feb-20 00:30N 51°16' E 001°53'714.7
2018-Feb-20 00:00N 51°11' E 001°45'714.5
2018-Feb-19 23:30N 51°05' E 001°38'714.1
2018-Feb-19 23:00N 50°60' E 001°31'713.1
2018-Feb-19 22:29N 50°54' E 001°25'612.7
2018-Feb-19 22:00N 50°48' E 001°23'712.7
2018-Feb-19 21:25N 50°41' E 001°21'512.9
2018-Feb-19 21:00N 50°37' E 001°15'712.9
2018-Feb-19 20:29N 50°33' E 001°06'613.3
2018-Feb-19 20:00N 50°31' E 000°57'713.5
2018-Feb-19 19:30N 50°28' E 000°47'713.4
2018-Feb-19 18:57N 50°25' E 000°36'613.4
2018-Feb-19 18:30N 50°24' E 000°27'713.4
2018-Feb-19 18:00N 50°22' E 000°17'713.2
2018-Feb-19 17:30N 50°21' E 000°07'4413.1
2018-Feb-19 14:10N 50°09' W 000°59'214.0
2018-Feb-19 14:00N 50°09' W 001°03'814.6
2018-Feb-19 13:27N 50°06' W 001°15'715.3
2018-Feb-19 13:00N 50°05' W 001°25'816.0
2018-Feb-19 12:30N 50°02' W 001°37'816.8
2018-Feb-19 12:00N 50°01' W 001°50'917.3
2018-Feb-19 11:31N 49°59' W 002°03'1122.2
2018-Feb-19 11:00N 49°57' W 002°20'1223.2
2018-Feb-19 10:30N 49°54' W 002°37'1122.8
2018-Feb-19 10:00N 49°50' W 002°54'1322.3
2018-Feb-19 09:26N 49°43' W 003°10'10221.9
2018-Feb-19 04:46N 48°52' W 005°26'621.6
2018-Feb-19 04:30N 48°49' W 005°33'3617.5
2018-Feb-19 02:27N 48°18' W 006°01'2722.0
2018-Feb-19 01:13N 47°54' W 006°19'53621.9
2018-Feb-18 00:46N 39°20' W 009°51'621.8
2018-Feb-18 00:29N 39°14' W 009°51'920.0
2018-Feb-18 00:01N 39°04' W 009°52'1020.1
2018-Feb-17 23:30N 38°54' W 009°52'1019.6
2018-Feb-17 23:01N 38°44' W 009°52'816.3
2018-Feb-17 22:31N 38°37' W 009°48'816.3
2018-Feb-17 22:00N 38°33' W 009°38'816.4
2018-Feb-17 21:31N 38°29' W 009°29'816.7
2018-Feb-17 21:01N 38°25' W 009°20'612.6
2018-Feb-17 20:30N 38°23' W 009°12'612.6
2018-Feb-17 20:01N 38°24' W 009°04'510.4
2018-Feb-17 19:30N 38°27' W 008°59'510.6
2018-Feb-17 19:00N 38°29' W 008°53'1 2.1
2018-Feb-17 18:29N 38°29' W 008°52'0 0.1
2018-Feb-17 17:59N 38°29' W 008°52'0 0.4
2018-Feb-17 17:26N 38°28' W 008°52'0 0.3
2018-Feb-17 16:59N 38°28' W 008°51'0 0.1
2018-Feb-17 16:29N 38°28' W 008°51'0 0.0
2018-Feb-17 15:59N 38°28' W 008°51'0 0.0
2018-Feb-17 15:29N 38°28' W 008°51'0 0.0
2018-Feb-17 14:59N 38°28' W 008°51'0 0.0
2018-Feb-17 14:29N 38°28' W 008°51'0 0.0
2018-Feb-17 13:59N 38°28' W 008°51'0 0.1
2018-Feb-17 13:29N 38°28' W 008°51'0 0.0
2018-Feb-17 12:59N 38°28' W 008°51'0 0.0
2018-Feb-17 12:29N 38°28' W 008°51'0 0.0
2018-Feb-17 11:59N 38°28' W 008°51'0 0.1
2018-Feb-17 11:29N 38°28' W 008°51'0 0.3
2018-Feb-17 10:53N 38°28' W 008°52'0 0.2
2018-Feb-17 10:17N 38°29' W 008°52'0 0.1
2018-Feb-17 09:59N 38°29' W 008°52'0 0.0
2018-Feb-17 09:29N 38°29' W 008°52'0 0.0
2018-Feb-17 08:59N 38°29' W 008°52'0 0.0
2018-Feb-17 08:29N 38°29' W 008°52'0 0.0
2018-Feb-17 07:50N 38°29' W 008°52'0 0.0
2018-Feb-17 07:29N 38°29' W 008°52'0 0.0
2018-Feb-17 06:59N 38°29' W 008°52'0 0.0
2018-Feb-17 06:29N 38°29' W 008°52'0 0.0
2018-Feb-17 05:59N 38°29' W 008°52'0 0.0
2018-Feb-17 05:29N 38°29' W 008°52'0 0.0
2018-Feb-17 04:59N 38°29' W 008°52'0 0.2
2018-Feb-17 04:26N 38°28' W 008°52'0 0.3
2018-Feb-17 03:53N 38°28' W 008°52'0 0.1
2018-Feb-17 03:29N 38°28' W 008°51'0 0.1
2018-Feb-17 02:59N 38°28' W 008°51'0 0.0
2018-Feb-17 02:29N 38°28' W 008°51'0 0.0
2018-Feb-17 01:59N 38°28' W 008°51'0 0.1
2018-Feb-17 01:29N 38°28' W 008°51'0 0.0
2018-Feb-17 00:59N 38°28' W 008°51'0 0.0
2018-Feb-17 00:29N 38°28' W 008°51'0 0.0
2018-Feb-16 23:59N 38°28' W 008°51'0 0.0
2018-Feb-16 23:29N 38°28' W 008°51'0 0.0
2018-Feb-16 22:59N 38°28' W 008°51'0 0.3
2018-Feb-16 22:29N 38°29' W 008°51'0 0.3
2018-Feb-16 21:56N 38°29' W 008°52'0 0.1
2018-Feb-16 21:29N 38°29' W 008°52'0 0.0
2018-Feb-16 20:59N 38°29' W 008°52'0 0.0
2018-Feb-16 20:29N 38°29' W 008°52'0 0.0
2018-Feb-16 19:59N 38°29' W 008°52'0 0.0
2018-Feb-16 19:29N 38°29' W 008°52'0 0.0
2018-Feb-16 18:59N 38°29' W 008°52'0 0.0
2018-Feb-16 18:29N 38°29' W 008°52'0 0.1
2018-Feb-16 17:56N 38°29' W 008°52'0 0.0
2018-Feb-16 17:26N 38°29' W 008°51'0 0.5
2018-Feb-16 16:50N 38°28' W 008°51'1 4.3
2018-Feb-16 16:30N 38°28' W 008°49'1 2.4
2018-Feb-16 15:56N 38°28' W 008°48'0 0.4
2018-Feb-16 15:29N 38°28' W 008°48'0 0.2
2018-Feb-16 14:56N 38°28' W 008°48'0 0.0
2018-Feb-16 14:29N 38°28' W 008°48'0 0.0
2018-Feb-16 13:56N 38°28' W 008°48'0 0.0
2018-Feb-16 13:26N 38°28' W 008°48'0 0.0
2018-Feb-16 12:59N 38°28' W 008°48'0 0.0
2018-Feb-16 12:29N 38°28' W 008°48'0 0.0
2018-Feb-16 11:56N 38°28' W 008°48'0 0.0
2018-Feb-16 11:05N 38°28' W 008°48'0 0.0
2018-Feb-16 10:59N 38°28' W 008°48'0 0.0
2018-Feb-16 10:29N 38°28' W 008°48'0 0.0
2018-Feb-16 09:59N 38°28' W 008°48'0 0.0
2018-Feb-16 09:29N 38°28' W 008°48'0 0.0
2018-Feb-16 08:59N 38°28' W 008°48'0 0.0
2018-Feb-16 08:17N 38°28' W 008°48'0 0.0
2018-Feb-16 07:32N 38°28' W 008°48'0 0.0
2018-Feb-16 07:29N 38°28' W 008°48'0 0.0
2018-Feb-16 06:59N 38°28' W 008°48'0 0.0
2018-Feb-16 06:23N 38°28' W 008°48'0 0.0
2018-Feb-16 05:59N 38°28' W 008°48'0 0.0
2018-Feb-16 05:29N 38°28' W 008°48'0 0.0
2018-Feb-16 04:53N 38°28' W 008°48'0 0.0
2018-Feb-16 04:29N 38°28' W 008°48'0 0.0
2018-Feb-16 03:59N 38°28' W 008°48'0 0.0
2018-Feb-16 03:29N 38°28' W 008°48'0 0.0
2018-Feb-16 02:59N 38°28' W 008°48'0 0.0
2018-Feb-16 02:23N 38°28' W 008°48'0 0.0
2018-Feb-16 01:59N 38°28' W 008°48'0 0.0
2018-Feb-16 01:26N 38°28' W 008°48'0 0.0
2018-Feb-16 00:53N 38°28' W 008°48'0 0.0
2018-Feb-16 00:29N 38°28' W 008°48'  
Track history (hours):
 
Tides and Currents Weather Stations Pressure Air Temp Water Temp Dewpoint Dewpoint Depression Visibility Wind Speed Wind Dir Waves Ship Positions

Rio De La Plata

Last reported at 2018-Feb-25 04:00 UTC. Time now 2018-Feb-25 04:15 UTC.
Position N 49°07' W 005°18'.

Length 286 m; draft 12.1 m.

Type: Ship (hazmat cat C). MMSI: 636092451.

Date/timePositionNaut miles runAvg speedWind from/ knotsBaromVisibWave heightAir tempDewpointWater temp
2018-Feb-25 04:00N 49°07' W 005°18'8318.7
2018-Feb-24 23:32N 49°49' W 003°26'218.7
2018-Feb-24 23:24N 49°50' W 003°23'818.8
2018-Feb-24 23:00N 49°54' W 003°13'1019.3
2018-Feb-24 22:30N 49°57' W 002°59'1019.8
2018-Feb-24 22:00N 49°59' W 002°44'1020.4
2018-Feb-24 21:30N 50°03' W 002°28'1321.2
2018-Feb-24 20:53N 50°06' W 002°09'821.7
2018-Feb-24 20:30N 50°08' W 001°57'1121.7
2018-Feb-24 20:00N 50°12' W 001°41'1221.7
2018-Feb-24 19:28N 50°15' W 001°23'4020.7
2018-Feb-24 17:31N 50°26' W 000°22'119.8
2018-Feb-24 17:29N 50°26' W 000°21'1119.8
2018-Feb-24 16:57N 50°28' W 000°05'919.5
2018-Feb-24 16:31N 50°30' E 000°08'1019.2
2018-Feb-24 16:01N 50°33' E 000°23'919.0
2018-Feb-24 15:31N 50°36' E 000°37'1019.1
2018-Feb-24 15:01N 50°41' E 000°50'1019.6
2018-Feb-24 14:30N 50°47' E 001°02'1220.4
2018-Feb-24 13:55N 50°55' E 001°17'921.4
2018-Feb-24 13:30N 51°01' E 001°26'1122.3
2018-Feb-24 13:01N 51°08' E 001°40'1020.9
2018-Feb-24 12:31N 51°17' E 001°50'1020.5
2018-Feb-24 12:01N 51°25' E 001°58'1020.5
2018-Feb-24 11:31N 51°33' E 002°09'1019.1
2018-Feb-24 11:00N 51°40' E 002°19'4916.9
2018-Feb-24 08:07N 52°03' E 003°29'315.3
2018-Feb-24 07:57N 52°03' E 003°33'715.3
2018-Feb-24 07:31N 52°03' E 003°44'611.9
2018-Feb-24 07:00N 52°04' E 003°54'5 9.5
2018-Feb-24 06:31N 52°01' E 003°60'4 8.0
2018-Feb-24 06:01N 51°58' E 004°05'1 1.8
2018-Feb-24 05:30N 51°58' E 004°03'0 0.0
2018-Feb-24 04:58N 51°58' E 004°03'0 0.0
2018-Feb-24 04:28N 51°58' E 004°03'0 0.0
2018-Feb-24 03:58N 51°58' E 004°03'0 0.0
2018-Feb-24 03:28N 51°58' E 004°03'0 0.0
2018-Feb-24 02:58N 51°58' E 004°03'0 0.0
2018-Feb-24 02:28N 51°58' E 004°03'0 0.0
2018-Feb-24 01:58N 51°58' E 004°03'0 0.0
2018-Feb-24 01:28N 51°58' E 004°03'0 0.0
2018-Feb-24 00:58N 51°58' E 004°03'0 0.0
2018-Feb-24 00:28N 51°58' E 004°03'0 0.0
2018-Feb-23 23:58N 51°58' E 004°03'0 0.0
2018-Feb-23 23:28N 51°58' E 004°03'0 0.0
2018-Feb-23 22:58N 51°58' E 004°03'0 0.0
2018-Feb-23 22:28N 51°58' E 004°03'0 0.0
2018-Feb-23 21:58N 51°58' E 004°03'0 0.0
2018-Feb-23 21:28N 51°58' E 004°03'0 0.0
2018-Feb-23 20:58N 51°58' E 004°03'0 0.0
2018-Feb-23 20:28N 51°58' E 004°03'0 0.0
2018-Feb-23 19:58N 51°58' E 004°03'0 0.0
2018-Feb-23 19:28N 51°58' E 004°03'0 0.0
2018-Feb-23 18:58N 51°58' E 004°03'0 0.0
2018-Feb-23 18:28N 51°58' E 004°03'0 0.0
2018-Feb-23 17:58N 51°58' E 004°03'0 0.0
2018-Feb-23 17:28N 51°58' E 004°03'0 0.0
2018-Feb-23 16:58N 51°58' E 004°03'0 0.0
2018-Feb-23 16:28N 51°58' E 004°03'0 0.0
2018-Feb-23 15:58N 51°58' E 004°03'0 0.0
2018-Feb-23 15:28N 51°58' E 004°03'0 0.0
2018-Feb-23 14:58N 51°58' E 004°03'0 0.0
2018-Feb-23 14:28N 51°58' E 004°03'0 0.0
2018-Feb-23 14:00N 51°58' E 004°03'1 2.3
2018-Feb-23 13:31N 51°58' E 004°05'3 6.2
2018-Feb-23 13:00N 51°60' E 004°01'713.5
2018-Feb-23 12:30N 51°59' E 003°50'3 5.5
2018-Feb-23 12:00N 52°00' E 003°46'611.9
2018-Feb-23 11:30N 52°06' E 003°46'612.1
2018-Feb-23 11:00N 52°12' E 003°47'612.9
2018-Feb-23 10:30N 52°19' E 003°48'1018.1
2018-Feb-23 09:57N 52°29' E 003°52'817.5
2018-Feb-23 09:30N 52°37' E 003°54'1516.5
2018-Feb-23 08:36N 52°51' E 003°58'215.7
2018-Feb-23 08:30N 52°53' E 003°59'815.5
2018-Feb-23 08:00N 53°00' E 004°03'816.3
2018-Feb-23 07:29N 53°06' E 004°13'816.7
2018-Feb-23 06:59N 53°12' E 004°23'817.4
2018-Feb-23 06:31N 53°19' E 004°30'917.7
2018-Feb-23 06:00N 53°27' E 004°37'917.1
2018-Feb-23 05:29N 53°31' E 004°49'918.6
2018-Feb-23 04:59N 53°35' E 005°04'918.4
2018-Feb-23 04:29N 53°38' E 005°18'917.9
2018-Feb-23 04:00N 53°41' E 005°32'917.6
2018-Feb-23 03:28N 53°44' E 005°47'6716.1
2018-Feb-22 23:20N 53°59' E 007°37'1013.1
2018-Feb-22 22:36N 53°53' E 007°49'114.7
2018-Feb-22 22:30N 53°52' E 007°51'713.4
2018-Feb-22 22:00N 53°51' E 008°02'815.8
2018-Feb-22 21:30N 53°45' E 008°12'816.9
2018-Feb-22 21:00N 53°40' E 008°23'612.8
2018-Feb-22 20:31N 53°36' E 008°31'0 0.5
2018-Feb-22 20:00N 53°36' E 008°31'0 0.0
2018-Feb-22 19:30N 53°36' E 008°31'0 0.0
2018-Feb-22 19:00N 53°36' E 008°31'0 0.0
2018-Feb-22 18:30N 53°36' E 008°31'0 0.0
2018-Feb-22 18:00N 53°36' E 008°31'0 0.0
2018-Feb-22 17:30N 53°36' E 008°31'0 0.0
2018-Feb-22 17:00N 53°36' E 008°31'0 0.0
2018-Feb-22 16:30N 53°36' E 008°31'0 0.0
2018-Feb-22 16:00N 53°36' E 008°31'0 0.0
2018-Feb-22 15:30N 53°36' E 008°31'0 0.1
2018-Feb-22 15:00N 53°36' E 008°31'0 0.1
2018-Feb-22 14:30N 53°36' E 008°31'0 0.0
2018-Feb-22 14:00N 53°36' E 008°31'0 0.0
2018-Feb-22 13:30N 53°36' E 008°31'0 0.1
2018-Feb-22 13:00N 53°36' E 008°31'0 0.0
2018-Feb-22 12:30N 53°36' E 008°31'0 0.0
2018-Feb-22 12:00N 53°36' E 008°31'0 0.1
2018-Feb-22 11:30N 53°36' E 008°31'0 0.1
2018-Feb-22 11:00N 53°36' E 008°31'0 0.0
2018-Feb-22 10:30N 53°36' E 008°31'0 0.0
2018-Feb-22 10:00N 53°36' E 008°31'0 0.0
2018-Feb-22 09:30N 53°36' E 008°31'0 0.0
2018-Feb-22 09:00N 53°36' E 008°31'0 0.0
2018-Feb-22 08:30N 53°36' E 008°31'0 0.0
2018-Feb-22 08:00N 53°36' E 008°31'0 0.0
2018-Feb-22 07:30N 53°36' E 008°31'0 0.0
2018-Feb-22 07:00N 53°36' E 008°31'0 0.0
2018-Feb-22 06:30N 53°36' E 008°31'0 0.0
2018-Feb-22 06:00N 53°36' E 008°31'0 0.0
2018-Feb-22 05:30N 53°36' E 008°31'0 0.0
2018-Feb-22 05:00N 53°36' E 008°31'0 0.0
2018-Feb-22 04:30N 53°36' E 008°31'0 0.0
2018-Feb-22 04:00N 53°36' E 008°31'0 0.0
2018-Feb-22 03:30N 53°36' E 008°31'0 0.0
2018-Feb-22 03:00N 53°36' E 008°31'0 0.0
2018-Feb-22 02:30N 53°36' E 008°31'0 0.0
2018-Feb-22 02:00N 53°36' E 008°31'0 0.0
2018-Feb-22 01:30N 53°36' E 008°31'0 0.0
2018-Feb-22 01:00N 53°36' E 008°31'0 0.0
2018-Feb-22 00:30N 53°36' E 008°31'0 0.0
2018-Feb-22 00:00N 53°36' E 008°31'0 0.0
2018-Feb-21 23:30N 53°36' E 008°31'0 0.0
2018-Feb-21 23:00N 53°36' E 008°31'0 0.0
2018-Feb-21 22:30N 53°36' E 008°31'0 0.0
2018-Feb-21 22:00N 53°36' E 008°31'2 4.1
2018-Feb-21 21:30N 53°37' E 008°29'713.6
2018-Feb-21 21:00N 53°42' E 008°20'714.6
2018-Feb-21 20:30N 53°46' E 008°11'714.6
2018-Feb-21 20:00N 53°51' E 008°01'812.2
2018-Feb-21 19:19N 53°52' E 007°48'5 3.8
2018-Feb-21 17:53N 53°53' E 007°38'0 1.1
2018-Feb-21 17:30N 53°54' E 007°39'3 5.3
2018-Feb-21 16:59N 53°54' E 007°34'9814.2
2018-Feb-21 10:07N 53°28' E 004°56'214.6
2018-Feb-21 10:00N 53°28' E 004°53'2214.9
2018-Feb-21 08:32N 53°10' E 004°31'115.9
2018-Feb-21 08:29N 53°09' E 004°31'715.6
2018-Feb-21 08:00N 53°03' E 004°24'917.1
2018-Feb-21 07:30N 52°56' E 004°17'917.9
2018-Feb-21 07:00N 52°48' E 004°10'917.8
2018-Feb-21 06:30N 52°41' E 003°60'917.7
2018-Feb-21 06:00N 52°35' E 003°50'1017.8
2018-Feb-21 05:27N 52°27' E 003°40'817.5
2018-Feb-21 05:00N 52°22' E 003°30'5816.0
2018-Feb-21 01:22N 51°53' E 002°08'514.9
2018-Feb-21 01:00N 51°50' E 002°00'714.4
2018-Feb-21 00:31N 51°48' E 001°49'714.7
2018-Feb-21 00:00N 51°50' E 001°38'3 6.5
2018-Feb-20 23:31N 51°48' E 001°33'713.6
2018-Feb-20 23:00N 51°43' E 001°28'713.5
2018-Feb-20 22:30N 51°38' E 001°20'714.3
2018-Feb-20 22:00N 51°34' E 001°11'815.9
2018-Feb-20 21:30N 51°29' E 000°60'714.8
2018-Feb-20 21:00N 51°29' E 000°48'714.6
2018-Feb-20 20:30N 51°30' E 000°36'4 7.7
2018-Feb-20 20:00N 51°30' E 000°30'0 0.0
2018-Feb-20 19:30N 51°30' E 000°30'0 0.0
2018-Feb-20 19:00N 51°30' E 000°30'0 0.0
2018-Feb-20 18:30N 51°30' E 000°30'0 0.0
2018-Feb-20 18:00N 51°30' E 000°30'0 0.0
2018-Feb-20 17:30N 51°30' E 000°30'0 0.0
2018-Feb-20 17:00N 51°30' E 000°30'0 0.0
2018-Feb-20 16:30N 51°30' E 000°30'0 0.0
2018-Feb-20 16:01N 51°30' E 000°30'0 0.0
2018-Feb-20 15:30N 51°30' E 000°30'0 0.0
2018-Feb-20 15:00N 51°30' E 000°30'0 0.0
2018-Feb-20 14:30N 51°30' E 000°30'0 0.0
2018-Feb-20 14:00N 51°30' E 000°30'0 0.0
2018-Feb-20 13:30N 51°30' E 000°30'0 0.0
2018-Feb-20 13:00N 51°30' E 000°30'0 0.0
2018-Feb-20 12:30N 51°30' E 000°30'0 0.0
2018-Feb-20 12:00N 51°30' E 000°30'0 0.0
2018-Feb-20 11:30N 51°30' E 000°30'0 0.0
2018-Feb-20 11:00N 51°30' E 000°30'0 0.0
2018-Feb-20 10:30N 51°30' E 000°30'0 0.0
2018-Feb-20 10:00N 51°30' E 000°30'0 0.0
2018-Feb-20 09:30N 51°30' E 000°30'0 0.0
2018-Feb-20 09:00N 51°30' E 000°30'0 0.0
2018-Feb-20 08:30N 51°30' E 000°30'0 0.0
2018-Feb-20 08:00N 51°30' E 000°30'0 0.0
2018-Feb-20 07:30N 51°30' E 000°30'0 0.4
2018-Feb-20 07:00N 51°30' E 000°31'2 4.3
2018-Feb-20 06:31N 51°30' E 000°34'4 8.5
2018-Feb-20 06:00N 51°30' E 000°41'510.9
2018-Feb-20 05:30N 51°29' E 000°49'612.0
2018-Feb-20 05:00N 51°29' E 000°59'612.2
2018-Feb-20 04:31N 51°29' E 001°09'611.7
2018-Feb-20 04:01N 51°29' E 001°18'713.9
2018-Feb-20 03:30N 51°29' E 001°30'4 7.5
2018-Feb-20 03:00N 51°29' E 001°36'3 5.6
2018-Feb-20 02:30N 51°30' E 001°40'611.0
2018-Feb-20 02:00N 51°30' E 001°49'612.5
2018-Feb-20 01:30N 51°27' E 001°57'510.8
2018-Feb-20 01:01N 51°22' E 002°00'714.4
2018-Feb-20 00:30N 51°16' E 001°53'714.7
2018-Feb-20 00:00N 51°11' E 001°45'714.5
2018-Feb-19 23:30N 51°05' E 001°38'714.1
2018-Feb-19 23:00N 50°60' E 001°31'713.1
2018-Feb-19 22:29N 50°54' E 001°25'612.7
2018-Feb-19 22:00N 50°48' E 001°23'712.7
2018-Feb-19 21:25N 50°41' E 001°21'512.9
2018-Feb-19 21:00N 50°37' E 001°15'712.9
2018-Feb-19 20:29N 50°33' E 001°06'613.3
2018-Feb-19 20:00N 50°31' E 000°57'713.5
2018-Feb-19 19:30N 50°28' E 000°47'713.4
2018-Feb-19 18:57N 50°25' E 000°36'613.4
2018-Feb-19 18:30N 50°24' E 000°27'713.4
2018-Feb-19 18:00N 50°22' E 000°17'713.2
2018-Feb-19 17:30N 50°21' E 000°07'4413.1
2018-Feb-19 14:10N 50°09' W 000°59'214.0
2018-Feb-19 14:00N 50°09' W 001°03'814.6
2018-Feb-19 13:27N 50°06' W 001°15'715.3
2018-Feb-19 13:00N 50°05' W 001°25'816.0
2018-Feb-19 12:30N 50°02' W 001°37'816.8
2018-Feb-19 12:00N 50°01' W 001°50'917.3
2018-Feb-19 11:31N 49°59' W 002°03'1122.2
2018-Feb-19 11:00N 49°57' W 002°20'1223.2
2018-Feb-19 10:30N 49°54' W 002°37'1122.8
2018-Feb-19 10:00N 49°50' W 002°54'1322.3
2018-Feb-19 09:26N 49°43' W 003°10'10221.9
2018-Feb-19 04:46N 48°52' W 005°26'621.6
2018-Feb-19 04:30N 48°49' W 005°33'3617.5
2018-Feb-19 02:27N 48°18' W 006°01'2722.0
2018-Feb-19 01:13N 47°54' W 006°19'53621.9
2018-Feb-18 00:46N 39°20' W 009°51'621.8
2018-Feb-18 00:29N 39°14' W 009°51'920.0
2018-Feb-18 00:01N 39°04' W 009°52'1020.1
2018-Feb-17 23:30N 38°54' W 009°52'1019.6
2018-Feb-17 23:01N 38°44' W 009°52'816.3
2018-Feb-17 22:31N 38°37' W 009°48'816.3
2018-Feb-17 22:00N 38°33' W 009°38'816.4
2018-Feb-17 21:31N 38°29' W 009°29'816.7
2018-Feb-17 21:01N 38°25' W 009°20'612.6
2018-Feb-17 20:30N 38°23' W 009°12'612.6
2018-Feb-17 20:01N 38°24' W 009°04'510.4
2018-Feb-17 19:30N 38°27' W 008°59'510.6
2018-Feb-17 19:00N 38°29' W 008°53'1 2.1
2018-Feb-17 18:29N 38°29' W 008°52'0 0.1
2018-Feb-17 17:59N 38°29' W 008°52'0 0.4
2018-Feb-17 17:26N 38°28' W 008°52'0 0.3
2018-Feb-17 16:59N 38°28' W 008°51'0 0.1
2018-Feb-17 16:29N 38°28' W 008°51'0 0.0
2018-Feb-17 15:59N 38°28' W 008°51'0 0.0
2018-Feb-17 15:29N 38°28' W 008°51'0 0.0
2018-Feb-17 14:59N 38°28' W 008°51'0 0.0
2018-Feb-17 14:29N 38°28' W 008°51'0 0.0
2018-Feb-17 13:59N 38°28' W 008°51'0 0.1
2018-Feb-17 13:29N 38°28' W 008°51'0 0.0
2018-Feb-17 12:59N 38°28' W 008°51'0 0.0
2018-Feb-17 12:29N 38°28' W 008°51'0 0.0
2018-Feb-17 11:59N 38°28' W 008°51'0 0.1
2018-Feb-17 11:29N 38°28' W 008°51'0 0.3
2018-Feb-17 10:53N 38°28' W 008°52'0 0.2
2018-Feb-17 10:17N 38°29' W 008°52'0 0.1
2018-Feb-17 09:59N 38°29' W 008°52'0 0.0
2018-Feb-17 09:29N 38°29' W 008°52'0 0.0
2018-Feb-17 08:59N 38°29' W 008°52'0 0.0
2018-Feb-17 08:29N 38°29' W 008°52'0 0.0
2018-Feb-17 07:50N 38°29' W 008°52'0 0.0
2018-Feb-17 07:29N 38°29' W 008°52'0 0.0
2018-Feb-17 06:59N 38°29' W 008°52'0 0.0
2018-Feb-17 06:29N 38°29' W 008°52'0 0.0
2018-Feb-17 05:59N 38°29' W 008°52'0 0.0
2018-Feb-17 05:29N 38°29' W 008°52'0 0.0
2018-Feb-17 04:59N 38°29' W 008°52'0 0.2
2018-Feb-17 04:26N 38°28' W 008°52'0 0.3
2018-Feb-17 03:53N 38°28' W 008°52'0 0.1
2018-Feb-17 03:29N 38°28' W 008°51'0 0.1
2018-Feb-17 02:59N 38°28' W 008°51'0 0.0
2018-Feb-17 02:29N 38°28' W 008°51'0 0.0
2018-Feb-17 01:59N 38°28' W 008°51'0 0.1
2018-Feb-17 01:29N 38°28' W 008°51'0 0.0
2018-Feb-17 00:59N 38°28' W 008°51'0 0.0
2018-Feb-17 00:29N 38°28' W 008°51'0 0.0
2018-Feb-16 23:59N 38°28' W 008°51'0 0.0
2018-Feb-16 23:29N 38°28' W 008°51'0 0.0
2018-Feb-16 22:59N 38°28' W 008°51'0 0.3
2018-Feb-16 22:29N 38°29' W 008°51'0 0.3
2018-Feb-16 21:56N 38°29' W 008°52'0 0.1
2018-Feb-16 21:29N 38°29' W 008°52'0 0.0
2018-Feb-16 20:59N 38°29' W 008°52'0 0.0
2018-Feb-16 20:29N 38°29' W 008°52'0 0.0
2018-Feb-16 19:59N 38°29' W 008°52'0 0.0
2018-Feb-16 19:29N 38°29' W 008°52'0 0.0
2018-Feb-16 18:59N 38°29' W 008°52'0 0.0
2018-Feb-16 18:29N 38°29' W 008°52'0 0.1
2018-Feb-16 17:56N 38°29' W 008°52'0 0.0
2018-Feb-16 17:26N 38°29' W 008°51'0 0.5
2018-Feb-16 16:50N 38°28' W 008°51'1 4.3
2018-Feb-16 16:30N 38°28' W 008°49'1 2.4
2018-Feb-16 15:56N 38°28' W 008°48'0 0.4
2018-Feb-16 15:29N 38°28' W 008°48'0 0.2
2018-Feb-16 14:56N 38°28' W 008°48'0 0.0
2018-Feb-16 14:29N 38°28' W 008°48'0 0.0
2018-Feb-16 13:56N 38°28' W 008°48'0 0.0
2018-Feb-16 13:26N 38°28' W 008°48'0 0.0
2018-Feb-16 12:59N 38°28' W 008°48'0 0.0
2018-Feb-16 12:29N 38°28' W 008°48'0 0.0
2018-Feb-16 11:56N 38°28' W 008°48'0 0.0
2018-Feb-16 11:05N 38°28' W 008°48'0 0.0
2018-Feb-16 10:59N 38°28' W 008°48'0 0.0
2018-Feb-16 10:29N 38°28' W 008°48'0 0.0
2018-Feb-16 09:59N 38°28' W 008°48'0 0.0
2018-Feb-16 09:29N 38°28' W 008°48'0 0.0
2018-Feb-16 08:59N 38°28' W 008°48'0 0.0
2018-Feb-16 08:17N 38°28' W 008°48'0 0.0
2018-Feb-16 07:32N 38°28' W 008°48'0 0.0
2018-Feb-16 07:29N 38°28' W 008°48'0 0.0
2018-Feb-16 06:59N 38°28' W 008°48'0 0.0
2018-Feb-16 06:23N 38°28' W 008°48'0 0.0
2018-Feb-16 05:59N 38°28' W 008°48'0 0.0
2018-Feb-16 05:29N 38°28' W 008°48'0 0.0
2018-Feb-16 04:53N 38°28' W 008°48'0 0.0
2018-Feb-16 04:29N 38°28' W 008°48'0 0.0
2018-Feb-16 03:59N 38°28' W 008°48'0 0.0
2018-Feb-16 03:29N 38°28' W 008°48'0 0.0
2018-Feb-16 02:59N 38°28' W 008°48'0 0.0
2018-Feb-16 02:23N 38°28' W 008°48'0 0.0
2018-Feb-16 01:59N 38°28' W 008°48'0 0.0
2018-Feb-16 01:26N 38°28' W 008°48'0 0.0
2018-Feb-16 00:53N 38°28' W 008°48'0 0.0
2018-Feb-16 00:29N 38°28' W 008°48'  

Dump ship's entire track history